Time;durP1;ratioP1;P1;durP2;ratioP2;P2;SDS_P1;SDS_P2;PMS_P1;PMS_P2;Temp;Humidity;BMP_temperature;BMP_pressure;BME280_temperature;BME280_humidity;BME280_pressure;Samples;Min_cycle;Max_cycle;Signal;HPM_P1;HPM_P2
2023/01/03 00:00:45;;;;;;;158.50;76.57;;;;;;;3.28;78.49;96236.50;4958546;28;20566;-80
2023/01/03 00:03:15;;;;;;;154.35;76.93;;;;;;;3.66;78.09;96291.75;4958058;28;20517;-80
2023/01/03 00:05:45;;;;;;;160.05;74.25;;;;;;;3.48;78.18;96260.94;4958180;28;20034;-80
2023/01/03 00:08:11;;;;;;;162.65;75.88;;;;;;;3.60;77.89;96274.22;4939771;28;20366;-80
2023/01/03 00:10:37;;;;;;;151.82;76.70;;;;;;;2.83;77.69;96164.72;4940055;28;20104;-80
2023/01/03 00:13:02;;;;;;;164.35;79.88;;;;;;;3.21;77.70;96219.16;4940507;28;20488;-80
2023/01/03 00:15:28;;;;;;;172.27;76.53;;;;;;;2.41;77.57;96104.88;4940933;28;20038;-80
2023/01/03 00:17:54;;;;;;;156.45;79.05;;;;;;;2.85;77.73;96172.41;4957650;28;20031;-80
2023/01/03 00:20:21;;;;;;;164.15;79.13;;;;;;;3.09;78.01;96211.91;4957395;28;20283;-80
2023/01/03 00:22:46;;;;;;;153.75;74.32;;;;;;;3.08;77.84;96202.44;4957082;28;20133;-80
2023/01/03 00:25:11;;;;;;;155.02;77.72;;;;;;;2.82;78.00;96178.06;4957578;28;20522;-80
2023/01/03 00:27:38;;;;;;;154.57;77.57;;;;;;;3.02;77.82;96215.53;4957849;28;20495;-80
2023/01/03 00:30:04;;;;;;;144.40;73.32;;;;;;;2.84;78.40;96210.88;4957462;28;20041;-80
2023/01/03 00:32:30;;;;;;;159.10;77.85;;;;;;;2.57;78.40;96172.56;4957561;28;20038;-80
2023/01/03 00:34:55;;;;;;;157.27;77.70;;;;;;;2.75;78.21;96183.25;4957666;28;20042;-80
2023/01/03 00:37:20;;;;;;;138.80;70.75;;;;;;;3.27;78.44;96279.50;4939968;28;20034;-80
2023/01/03 00:39:46;;;;;;;141.00;72.15;;;;;;;2.96;78.49;96222.41;4957128;28;20123;-80
2023/01/03 00:42:12;;;;;;;154.07;77.68;;;;;;;3.41;78.48;96288.97;4940056;28;20038;-80
2023/01/03 00:44:37;;;;;;;154.70;73.03;;;;;;;2.42;78.10;96136.09;4939619;28;20050;-80
2023/01/03 00:47:03;;;;;;;160.90;77.22;;;;;;;3.37;78.17;96281.69;4939237;28;20606;-80
2023/01/03 00:49:28;;;;;;;150.55;74.28;;;;;;;3.35;78.47;96289.78;4957159;28;20520;-80
2023/01/03 00:51:54;;;;;;;155.32;75.35;;;;;;;2.99;78.17;96229.84;4957414;28;20041;-80
2023/01/03 00:54:20;;;;;;;157.15;73.90;;;;;;;3.34;78.25;96289.97;4940074;28;20413;-80
2023/01/03 00:56:47;;;;;;;141.02;73.65;;;;;;;3.37;78.22;96284.31;4939551;28;20174;-80
2023/01/03 00:59:14;;;;;;;156.07;73.18;;;;;;;2.94;78.32;96234.88;4957227;28;20046;-80
2023/01/03 01:01:52;;;;;;;145.93;74.20;;;;;;;2.77;78.04;96186.50;4939816;28;20571;-80
2023/01/03 01:04:22;;;;;;;154.98;77.07;;;;;;;3.35;78.24;96284.53;4955675;28;20577;-80
2023/01/03 01:06:53;;;;;;;148.77;75.57;;;;;;;3.14;77.78;96247.19;4957207;28;20038;-80
2023/01/03 01:09:24;;;;;;;150.82;73.28;;;;;;;3.28;77.88;96272.44;4939642;28;20487;-80
2023/01/03 01:11:50;;;;;;;145.57;72.40;;;;;;;3.38;77.69;96297.22;4953949;28;20505;-80
2023/01/03 01:14:20;;;;;;;145.95;74.10;;;;;;;1.92;77.41;96043.19;4957319;28;20093;-80
2023/01/03 01:16:58;;;;;;;149.25;72.68;;;;;;;3.20;77.63;96255.09;4957458;28;20034;-80
2023/01/03 01:19:32;;;;;;;143.18;71.63;;;;;;;3.12;77.91;96234.31;4939452;28;20470;-80
2023/01/03 01:21:57;;;;;;;146.30;72.60;;;;;;;3.22;77.99;96258.28;4957269;28;20406;-80
2023/01/03 01:24:24;;;;;;;143.32;72.35;;;;;;;3.20;77.57;96247.22;4942863;28;20041;-80
2023/01/03 01:26:50;;;;;;;149.23;72.75;;;;;;;3.39;77.63;96279.69;4951337;28;20046;-80
2023/01/03 01:29:16;;;;;;;156.07;75.10;;;;;;;3.09;77.89;96232.88;4961095;28;20449;-80
2023/01/03 01:31:44;;;;;;;159.52;77.55;;;;;;;3.39;77.69;96274.44;4961275;28;20060;-80
2023/01/03 01:34:11;;;;;;;148.50;74.95;;;;;;;3.13;77.86;96242.97;4960894;28;20402;-80
2023/01/03 01:36:40;;;;;;;159.45;76.57;;;;;;;3.04;77.80;96224.03;4942651;28;20038;-80
2023/01/03 01:39:18;;;;;;;169.23;78.75;;;;;;;3.38;77.70;96264.94;4960773;28;20038;-80
2023/01/03 01:44:54;;;;;;;165.38;80.68;;;;;;;3.09;77.36;96216.34;4961030;28;20773;-80
2023/01/03 01:47:23;;;;;;;;;;;;;;;3.37;77.16;96258.91;4961151;28;20034;-80
2023/01/03 01:49:53;;;;;;;163.45;77.40;;;;;;;2.92;77.11;96197.59;4960275;28;20262;-80
2023/01/03 01:52:20;;;;;;;151.88;78.78;;;;;;;3.34;77.31;96255.88;4960133;28;20406;-80
2023/01/03 01:54:48;;;;;;;157.20;76.85;;;;;;;3.32;77.26;96255.28;4942188;28;20065;-79
2023/01/03 01:57:17;;;;;;;170.40;81.70;;;;;;;3.01;77.27;96222.59;4941820;28;20031;-79
2023/01/03 01:59:43;;;;;;;161.02;81.25;;;;;;;2.83;77.11;96187.50;4959839;28;20034;-79
2023/01/03 02:02:10;;;;;;;184.70;87.22;;;;;;;2.91;76.96;96200.41;4942118;28;20026;-79
2023/01/03 02:04:38;;;;;;;164.05;85.15;;;;;;;2.60;77.10;96154.63;4959732;28;20179;-79
2023/01/03 02:07:06;;;;;;;168.27;85.75;;;;;;;2.69;77.06;96179.63;4959479;28;20493;-79
2023/01/03 02:09:34;;;;;;;186.88;89.75;;;;;;;3.27;77.07;96258.50;4941911;28;20031;-79
2023/01/03 02:15:33;;;;;;;179.25;88.00;;;;;;;3.26;77.25;96253.47;4959345;28;20109;-79
2023/01/03 02:18:11;;;;;;;184.20;91.05;;;;;;;2.92;76.99;96204.63;4941408;28;20046;-79
2023/01/03 02:21:12;;;;;;;197.73;92.47;;;;;;;3.22;76.94;96254.84;4941360;28;20049;-79
2023/01/03 02:23:43;;;;;;;185.32;89.25;;;;;;;3.17;77.51;96247.59;4889072;29;20564;-79
2023/01/03 02:26:39;;;;;;;182.15;88.28;;;;;;;3.18;77.01;96251.84;4933500;28;20089;-79
2023/01/03 02:29:17;;;;;;;182.30;88.55;;;;;;;3.17;77.32;96255.47;4954125;28;20418;-79
2023/01/03 02:32:01;;;;;;;187.93;91.20;;;;;;;3.14;77.46;96249.81;4957608;28;20346;-79
2023/01/03 02:34:31;;;;;;;193.13;94.97;;;;;;;3.05;77.53;96244.75;4959669;28;20042;-79
2023/01/03 02:36:57;;;;;;;201.45;99.80;;;;;;;3.08;77.00;96247.00;4958566;28;20066;-79
2023/01/03 02:39:29;;;;;;;201.30;95.13;;;;;;;2.92;77.07;96225.59;4958906;28;20157;-79
2023/01/03 02:45:06;;;;;;;237.05;117.05;;;;;;;2.65;76.89;96188.91;4959417;28;20073;-80
2023/01/03 02:47:43;;;;;;;222.05;108.20;;;;;;;3.07;76.98;96252.44;4941524;28;20043;-79
2023/01/03 02:50:11;;;;;;;233.80;110.72;;;;;;;3.01;76.71;96246.19;4957782;28;20034;-80
2023/01/03 02:52:39;;;;;;;272.08;122.05;;;;;;;2.80;76.67;96211.50;4941106;28;20734;-79
2023/01/03 02:55:16;;;;;;;236.32;110.03;;;;;;;3.01;77.09;96248.00;4958594;28;20441;-79
2023/01/03 02:57:51;;;;;;;220.93;103.38;;;;;;;2.99;77.05;96242.94;4941116;28;20038;-80
2023/01/03 03:00:20;;;;;;;201.15;99.15;;;;;;;2.81;76.60;96216.53;4958902;28;20042;-79
2023/01/03 03:02:55;;;;;;;211.88;100.15;;;;;;;2.98;76.63;96238.72;4941187;28;20035;-80
2023/01/03 03:05:25;;;;;;;199.18;100.88;;;;;;;2.92;76.70;96239.50;4958215;28;20039;-80
2023/01/03 03:07:51;;;;;;;220.13;102.88;;;;;;;2.88;76.37;96227.03;4958447;28;20128;-81
2023/01/03 03:13:13;;;;;;;206.35;98.32;;;;;;;2.72;76.06;96209.88;4958655;28;20046;-80
2023/01/03 03:15:54;;;;;;;216.52;102.18;;;;;;;2.84;75.93;96242.31;4958324;28;20046;-81
2023/01/03 03:18:57;;;;;;;203.38;98.00;;;;;;;2.82;76.33;96244.34;4958337;28;20122;-80
2023/01/03 03:28:33;;;;;;;216.68;99.45;;;;;;;-1.13;75.87;95618.53;4943199;28;20532;-80
2023/01/03 03:29:57;;;;;;;202.27;97.50;;;;;;;2.37;76.22;96174.31;4957580;28;20077;-80
2023/01/03 03:32:26;;;;;;;204.85;96.13;;;;;;;2.15;76.51;96147.50;4940076;28;20114;-80
2023/01/03 03:34:54;;;;;;;199.70;96.80;;;;;;;2.08;76.47;96152.72;4951930;28;20047;-81
2023/01/03 03:37:23;;;;;;;196.80;94.65;;;;;;;2.69;76.23;96245.13;4958247;28;20553;-80
2023/01/03 03:45:53;;;;;;;257.35;123.78;;;;;;;2.52;76.55;96222.09;4958084;28;20284;-79
2023/01/03 03:48:18;;;;;;;236.82;110.82;;;;;;;2.56;76.37;96223.31;4940297;28;20894;-80
2023/01/03 03:50:47;;;;;;;259.50;121.70;;;;;;;2.70;76.55;96253.78;4940431;28;20043;-80
2023/01/03 03:53:16;;;;;;;277.10;129.38;;;;;;;1.82;76.16;96110.78;4940084;28;20098;-80
2023/01/03 03:56:00;;;;;;;292.55;138.18;;;;;;;2.69;76.20;96247.72;4957957;28;20060;-80
2023/01/03 03:58:31;;;;;;;273.85;131.30;;;;;;;2.20;75.75;96200.06;4957959;28;20064;-79
2023/01/03 04:00:59;;;;;;;272.98;132.30;;;;;;;2.27;75.75;96206.94;4957520;28;20483;-81
2023/01/03 04:03:25;;;;;;;273.20;132.35;;;;;;;1.92;75.58;96145.22;4957567;28;20041;-80
2023/01/03 04:06:05;;;;;;;270.85;129.18;;;;;;;2.62;74.93;96243.47;4939852;28;20412;-80
2023/01/03 04:08:31;;;;;;;232.65;117.63;;;;;;;2.28;75.10;96202.53;4957423;28;20038;-81
2023/01/03 04:11:07;;;;;;;237.15;117.70;;;;;;;2.16;74.66;96185.75;4939635;28;20031;-81
2023/01/03 04:13:36;;;;;;;268.42;123.45;;;;;;;2.57;74.99;96248.50;4957808;28;20042;-80
2023/01/03 04:16:03;;;;;;;243.80;118.78;;;;;;;2.57;74.91;96256.38;4957356;28;20035;-80
2023/01/03 04:18:28;;;;;;;254.30;120.85;;;;;;;2.55;74.59;96251.31;4939092;28;20445;-81
2023/01/03 04:20:54;;;;;;;252.50;121.53;;;;;;;2.52;74.80;96243.84;4957220;28;20038;-80
2023/01/03 04:23:20;;;;;;;256.30;123.60;;;;;;;2.44;74.49;96245.88;4956996;28;20030;-80
2023/01/03 04:25:47;;;;;;;267.75;125.97;;;;;;;2.38;74.62;96221.25;4923011;28;20532;-80
2023/01/03 04:28:13;;;;;;;258.73;126.45;;;;;;;2.02;74.94;96182.28;4957382;28;20038;-80
2023/01/03 04:30:39;;;;;;;263.52;131.00;;;;;;;2.16;74.89;96204.06;4957018;28;20379;-80
2023/01/03 04:33:04;;;;;;;267.13;128.90;;;;;;;2.27;74.78;96232.31;4939279;28;20030;-80
2023/01/03 04:35:34;;;;;;;260.15;123.28;;;;;;;2.16;74.73;96214.53;4939191;28;20034;-80
2023/01/03 04:37:59;;;;;;;246.77;123.85;;;;;;;1.71;75.02;96146.13;4956917;28;20046;-80
2023/01/03 04:40:25;;;;;;;255.70;121.38;;;;;;;2.01;74.42;96179.84;4939219;28;20031;-80
2023/01/03 04:45:36;;;;;;;252.35;118.15;;;;;;;1.74;74.21;96151.00;4956825;28;20101;-80
2023/01/03 04:48:02;;;;;;;236.77;117.15;;;;;;;1.98;74.30;96199.38;4939184;28;20902;-82
2023/01/03 04:50:28;;;;;;;246.95;115.35;;;;;;;1.76;74.23;96188.19;4956939;28;20588;-80
2023/01/03 04:52:54;;;;;;;240.02;112.38;;;;;;;2.39;74.20;96280.47;4959883;28;20053;-79
2023/01/03 04:55:19;;;;;;;235.98;112.95;;;;;;;1.82;74.14;96197.09;4941844;28;20051;-77
2023/01/03 04:57:45;;;;;;;228.25;111.15;;;;;;;2.35;73.90;96274.03;4961030;28;20420;-78
2023/01/03 05:00:11;;;;;;;230.48;109.50;;;;;;;2.22;73.58;96253.00;4944477;28;20106;-78
2023/01/03 05:02:36;;;;;;;218.63;103.93;;;;;;;2.33;73.71;96279.44;4962081;28;20230;-78
2023/01/03 05:05:02;;;;;;;208.70;101.75;;;;;;;2.06;73.50;96240.28;4939902;28;20043;-78
2023/01/03 05:07:28;;;;;;;219.57;103.45;;;;;;;1.69;73.57;96192.59;4951284;28;20452;-79
2023/01/03 05:09:54;;;;;;;214.25;103.28;;;;;;;2.07;73.41;96245.28;4961058;28;20058;-78
2023/01/03 05:12:19;;;;;;;212.98;106.70;;;;;;;1.98;73.23;96230.78;4937059;28;20165;-77
2023/01/03 05:14:44;;;;;;;202.65;101.65;;;;;;;1.51;73.38;96179.22;4940629;28;20543;-77
2023/01/03 05:17:10;;;;;;;215.48;102.32;;;;;;;1.21;73.34;96126.38;4942712;28;20149;-77
2023/01/03 05:27:35;;;;;;;201.77;97.50;;;;;;;0.93;74.15;96096.84;4943492;28;20141;-81
2023/01/03 05:30:00;;;;;;;200.27;98.43;;;;;;;1.82;73.92;96236.34;4938707;28;20031;-83
2023/01/03 05:32:27;;;;;;;205.90;96.68;;;;;;;1.80;73.77;96238.31;4943367;28;20517;-81
2023/01/03 05:34:53;;;;;;;206.00;99.85;;;;;;;1.78;73.51;96229.84;4937810;28;20380;-81
2023/01/03 05:37:18;;;;;;;209.55;102.80;;;;;;;1.78;73.75;96225.44;4947128;28;20137;-82
2023/01/03 05:39:44;;;;;;;198.63;99.38;;;;;;;1.52;73.70;96186.88;4947556;28;20484;-81
2023/01/03 05:42:09;;;;;;;219.88;104.57;;;;;;;1.61;73.88;96207.63;4947078;28;20470;-82
2023/01/03 05:44:35;;;;;;;218.35;99.13;;;;;;;2.17;73.68;96287.63;4929133;28;20046;-82
2023/01/03 05:47:03;;;;;;;211.13;101.10;;;;;;;2.19;73.57;96280.41;4947586;28;20513;-81
2023/01/03 05:49:28;;;;;;;204.98;101.10;;;;;;;1.83;73.76;96235.34;4933822;28;20477;-82
2023/01/03 05:51:54;;;;;;;214.63;102.00;;;;;;;1.79;74.07;96234.91;4945093;28;20118;-82
2023/01/03 05:54:20;;;;;;;206.68;101.68;;;;;;;1.67;73.92;96215.53;4944804;28;20043;-84
2023/01/03 05:56:46;;;;;;;211.57;100.35;;;;;;;1.41;73.99;96178.75;4941514;28;20071;-83
2023/01/03 05:59:11;;;;;;;218.60;100.65;;;;;;;1.76;74.18;96227.44;4930319;28;20042;-83
2023/01/03 06:01:37;;;;;;;203.57;99.22;;;;;;;1.80;74.35;96248.78;4940921;28;20470;-84
2023/01/03 06:04:03;;;;;;;213.48;100.28;;;;;;;1.70;73.98;96230.81;4937752;28;20469;-81
2023/01/03 06:06:28;;;;;;;205.73;96.68;;;;;;;1.61;74.33;96218.06;4929688;28;20035;-84
2023/01/03 06:08:54;;;;;;;198.23;92.57;;;;;;;2.14;74.09;96300.28;4925053;28;20077;-81
2023/01/03 06:11:19;;;;;;;214.10;96.63;;;;;;;2.12;73.78;96308.34;4930006;28;20173;-84
2023/01/03 06:13:45;;;;;;;196.82;93.50;;;;;;;1.27;73.36;96177.88;4925504;28;20031;-82
2023/01/03 06:19:00;;;;;;;198.98;92.40;;;;;;;1.58;73.68;96244.63;4938492;28;20046;-83
2023/01/03 06:21:26;;;;;;;203.05;95.57;;;;;;;1.51;73.40;96228.91;4922104;28;20055;-81
2023/01/03 06:23:52;;;;;;;202.20;96.07;;;;;;;2.09;73.22;96315.75;4933097;28;20273;-81
2023/01/03 06:26:19;;;;;;;207.40;94.97;;;;;;;1.91;72.93;96290.88;4939127;28;20039;-82
2023/01/03 06:28:45;;;;;;;202.15;95.15;;;;;;;1.51;72.80;96234.94;4935743;28;20039;-81
2023/01/03 06:31:11;;;;;;;213.75;97.70;;;;;;;2.04;72.76;96324.19;4939172;28;20049;-83
2023/01/03 06:33:37;;;;;;;230.68;97.85;;;;;;;2.02;73.05;96312.28;4954662;28;20035;-83
2023/01/03 06:36:09;;;;;;;210.38;97.85;;;;;;;2.03;72.85;96306.06;4943466;28;20148;-82
2023/01/03 06:38:35;;;;;;;;;;;;;;;2.01;72.66;96308.06;4939919;28;20064;-83
2023/01/03 06:41:00;;;;;;;208.23;93.97;;;;;;;1.87;72.69;96291.47;4936940;29;19934;-82
2023/01/03 06:43:26;;;;;;;211.32;93.60;;;;;;;1.59;73.04;96248.84;4940553;28;20050;-82
2023/01/03 06:54:06;;;;;;;212.32;93.65;;;;;;;1.33;73.29;96221.53;4942209;28;20149;-82
2023/01/03 06:56:32;;;;;;;193.88;93.70;;;;;;;2.01;73.12;96329.00;4940285;28;20521;-83
2023/01/03 06:58:57;;;;;;;179.75;79.30;;;;;;;1.53;73.28;96279.97;4941766;28;20053;-82
2023/01/03 07:01:23;;;;;;;180.93;82.68;;;;;;;1.32;73.45;96246.03;4940738;28;20437;-82
2023/01/03 07:03:48;;;;;;;163.13;78.03;;;;;;;1.83;73.14;96330.28;4928698;28;20043;-82
2023/01/03 07:06:17;;;;;;;149.82;68.47;;;;;;;1.66;73.23;96300.19;4932306;28;20047;-82
2023/01/03 07:08:42;;;;;;;157.65;72.80;;;;;;;0.86;73.91;96200.44;4939882;28;20437;-81
2023/01/03 07:11:07;;;;;;;165.43;69.55;;;;;;;1.85;73.87;96345.78;4932800;28;20097;-82
2023/01/03 07:16:43;;;;;;;165.55;68.80;;;;;;;1.46;73.14;96266.06;4909880;28;20046;-82
2023/01/03 07:19:11;;;;;;;172.80;70.50;;;;;;;1.90;73.21;96325.13;4932604;28;20082;-82
2023/01/03 07:21:37;;;;;;;153.65;62.92;;;;;;;1.51;73.60;96266.31;4942716;28;20122;-81
2023/01/03 07:24:04;;;;;;;167.73;63.05;;;;;;;1.66;73.67;96291.53;4926070;28;20121;-82
2023/01/03 07:26:32;;;;;;;149.32;62.55;;;;;;;2.07;73.95;96359.63;4945134;28;20042;-81
2023/01/03 07:28:59;;;;;;;160.30;61.75;;;;;;;2.01;73.96;96361.19;4928562;28;20369;-81
2023/01/03 07:31:25;;;;;;;150.13;62.40;;;;;;;1.58;74.00;96283.84;4946334;28;20042;-82
2023/01/03 07:33:52;;;;;;;152.38;65.90;;;;;;;1.14;73.71;96217.75;4940797;28;20055;-83
2023/01/03 07:36:18;;;;;;;141.00;63.38;;;;;;;2.05;74.42;96354.59;4920239;28;20501;-81
2023/01/03 07:38:45;;;;;;;150.48;63.22;;;;;;;1.43;74.11;96245.53;4949264;28;20039;-82
2023/01/03 07:41:12;;;;;;;149.10;66.82;;;;;;;2.11;74.64;96358.25;4929762;28;20113;-83
2023/01/03 07:43:42;;;;;;;132.13;63.47;;;;;;;1.39;74.35;96233.03;4931402;28;20418;-83
2023/01/03 07:46:17;;;;;;;150.90;66.75;;;;;;;2.26;74.18;96365.00;4943680;28;20134;-82
2023/01/03 07:48:45;;;;;;;147.57;67.38;;;;;;;2.19;74.39;96339.78;4927766;28;20066;-83
2023/01/03 07:51:13;;;;;;;145.88;69.30;;;;;;;2.37;74.56;96362.81;4943868;28;20433;-81
2023/01/03 07:53:39;;;;;;;150.60;68.53;;;;;;;2.16;74.76;96319.22;4900621;29;20042;-85
2023/01/03 07:56:07;;;;;;;159.18;68.35;;;;;;;2.48;74.59;96352.63;4945797;28;20122;-83
2023/01/03 07:58:34;;;;;;;151.85;70.40;;;;;;;2.27;74.71;96314.25;4930963;28;20034;-83
2023/01/03 08:01:14;;;;;;;178.05;68.45;;;;;;;1.90;74.77;96254.47;4930269;28;20359;-85
2023/01/03 08:03:43;;;;;;;166.10;71.70;;;;;;;1.94;74.61;96251.28;4930735;28;20137;-86
2023/01/03 08:06:12;;;;;;;154.15;70.40;;;;;;;1.66;75.08;96215.72;4947561;28;20062;-86
2023/01/03 08:08:38;;;;;;;158.15;69.22;;;;;;;1.50;75.32;96177.59;4947407;28;20043;-83
2023/01/03 08:13:49;;;;;;;153.13;69.10;;;;;;;2.48;76.19;96339.53;4933851;28;20120;-81
2023/01/03 08:16:16;;;;;;;160.70;75.90;;;;;;;2.62;76.58;96361.34;4943769;28;20035;-83
2023/01/03 08:18:42;;;;;;;177.48;78.72;;;;;;;2.30;76.08;96286.88;4943942;28;20472;-84
2023/01/03 08:21:11;;;;;;;197.77;86.78;;;;;;;2.12;76.04;96268.28;4925549;28;20158;-83
2023/01/03 08:23:37;;;;;;;194.82;86.00;;;;;;;2.13;75.32;96260.25;4926134;28;20040;-83
2023/01/03 08:26:10;;;;;;;182.45;85.05;;;;;;;2.77;75.26;96364.63;4922980;28;20039;-82
2023/01/03 08:28:36;;;;;;;204.88;85.38;;;;;;;2.10;75.46;96239.69;4927448;28;20050;-84
2023/01/03 08:31:07;;;;;;;185.52;81.18;;;;;;;2.89;74.94;96355.22;4948129;28;20464;-84
2023/01/03 08:33:39;;;;;;;176.25;78.40;;;;;;;1.78;74.60;96175.75;4928314;28;20065;-82
2023/01/03 08:36:06;;;;;;;200.85;83.25;;;;;;;2.29;74.67;96251.22;4920976;28;20399;-83
2023/01/03 08:38:35;;;;;;;194.77;83.50;;;;;;;2.39;74.98;96263.94;4944618;28;20049;-82
2023/01/03 08:41:03;;;;;;;189.02;83.88;;;;;;;2.56;74.85;96294.03;4921638;28;20039;-83
2023/01/03 08:43:33;;;;;;;197.52;90.90;;;;;;;2.89;75.07;96355.22;4944824;28;20035;-83
2023/01/03 08:45:58;;;;;;;209.07;90.65;;;;;;;2.26;75.12;96257.69;4930647;28;20136;-83
2023/01/03 08:48:24;;;;;;;191.73;90.15;;;;;;;2.31;75.83;96284.06;4924967;28;20038;-81
2023/01/03 08:50:50;;;;;;;207.65;91.35;;;;;;;2.84;75.25;96357.59;4927432;28;20031;-82
2023/01/03 08:53:15;;;;;;;210.50;89.95;;;;;;;2.59;75.05;96285.81;4937937;28;20035;-87
2023/01/03 08:55:41;;;;;;;214.02;94.28;;;;;;;2.35;75.28;96245.22;4943539;28;20038;-83
2023/01/03 08:58:08;;;;;;;230.07;99.22;;;;;;;2.48;75.25;96250.50;4942632;28;20513;-85
2023/01/03 09:00:35;;;;;;;215.95;97.10;;;;;;;3.09;74.91;96329.88;4924621;28;20039;-84
2023/01/03 09:03:01;;;;;;;225.77;97.88;;;;;;;2.92;74.75;96285.88;4935117;28;20047;-82
2023/01/03 09:05:27;;;;;;;234.40;101.65;;;;;;;2.64;74.65;96223.97;4943997;28;20046;-83
2023/01/03 09:07:54;;;;;;;243.07;99.80;;;;;;;3.41;75.06;96338.78;4925464;28;20035;-82
2023/01/03 09:10:20;;;;;;;225.98;104.13;;;;;;;2.24;75.44;96168.06;4948209;28;20145;-83
2023/01/03 09:12:46;;;;;;;261.05;105.80;;;;;;;2.92;75.11;96247.38;4952980;28;20497;-83
2023/01/03 09:15:11;;;;;;;241.90;107.32;;;;;;;2.96;75.29;96242.56;4929474;28;20054;-83
2023/01/03 09:17:40;;;;;;;281.15;111.00;;;;;;;3.34;75.27;96313.56;4929568;28;20034;-87
2023/01/03 09:20:07;;;;;;;260.30;111.75;;;;;;;3.45;75.46;96326.88;4947518;28;20069;-85
2023/01/03 09:22:32;;;;;;;280.60;114.93;;;;;;;3.39;75.90;96325.06;4941926;28;20105;-82
2023/01/03 09:24:57;;;;;;;268.58;114.65;;;;;;;3.17;75.87;96275.63;4936295;28;20047;-82
2023/01/03 09:27:23;;;;;;;256.65;112.00;;;;;;;3.21;75.37;96254.06;4921731;28;20039;-85
2023/01/03 09:29:48;;;;;;;276.75;113.40;;;;;;;3.78;75.42;96313.78;4941089;28;20117;-85
2023/01/03 09:32:14;;;;;;;261.85;116.47;;;;;;;3.48;75.38;96270.59;4932482;28;20463;-87
2023/01/03 09:34:39;;;;;;;274.75;116.60;;;;;;;3.72;75.63;96311.16;4948260;28;20058;-85
2023/01/03 09:37:05;;;;;;;271.48;115.85;;;;;;;3.68;76.03;96304.69;4937934;28;20428;-83
2023/01/03 09:39:30;;;;;;;279.23;115.93;;;;;;;3.70;76.01;96300.06;4941674;28;20090;-86
2023/01/03 09:44:43;;;;;;;285.02;117.75;;;;;;;1.32;75.97;95888.00;4944837;28;20105;-83
2023/01/03 09:47:18;;;;;;;270.23;119.15;;;;;;;3.95;75.75;96284.47;4949870;28;20125;-84
2023/01/03 09:49:44;;;;;;;263.45;112.93;;;;;;;3.22;76.04;96187.50;4946567;28;20031;-84
2023/01/03 10:04:25;;;;;;;;;;;;;;;3.04;76.45;96113.94;4946749;28;20078;-82
2023/01/03 10:07:31;;;;;;;274.38;113.65;;;;;;;4.01;76.73;96260.03;4929524;28;19922;-82
2023/01/03 10:10:21;;;;;;;251.55;109.80;;;;;;;3.44;76.93;96180.22;4880520;28;20224;-82
2023/01/03 10:12:57;;;;;;;229.18;105.00;;;;;;;4.04;76.71;96255.19;4934944;28;20057;-84
2023/01/03 10:15:42;;;;;;;258.23;108.88;;;;;;;4.16;76.90;96244.84;4945507;28;20043;-83
2023/01/03 10:18:23;;;;;;;237.98;101.82;;;;;;;4.19;76.83;96247.06;4946524;28;20145;-83
2023/01/03 10:21:08;;;;;;;233.23;103.30;;;;;;;4.54;76.77;96240.44;4945484;28;20086;-83
2023/01/03 10:23:34;;;;;;;209.88;97.82;;;;;;;4.56;74.25;96124.66;4945409;28;20102;-81
2023/01/03 10:26:00;;;;;;;218.60;97.07;;;;;;;5.49;73.07;96104.44;4942190;28;20043;-83
2023/01/03 10:28:36;;;;;;;198.55;90.32;;;;;;;6.92;69.91;96234.59;4942325;28;20058;-82
2023/01/03 10:31:14;;;;;;;182.80;87.65;;;;;;;7.71;67.29;96208.75;4921658;28;20039;-82
2023/01/03 10:33:45;;;;;;;189.02;86.90;;;;;;;8.00;65.27;96165.56;4928558;28;20049;-82
2023/01/03 10:36:11;;;;;;;;;;;;;;;8.83;63.03;96211.88;4937663;28;20050;-82
2023/01/03 10:38:38;;;;;;;172.77;81.22;;;;;;;8.73;61.72;96135.00;4922086;28;19964;-83
2023/01/03 10:41:14;;;;;;;171.10;83.63;;;;;;;9.05;60.72;96156.44;4938956;28;20034;-82
2023/01/03 10:43:42;;;;;;;170.73;83.80;;;;;;;9.61;60.58;96166.06;4945334;28;20070;-82
2023/01/03 10:46:24;;;;;;;156.32;82.10;;;;;;;10.14;58.95;96201.75;4930274;28;20035;-82
2023/01/03 10:48:51;;;;;;;154.13;79.50;;;;;;;10.43;58.54;96190.75;4931655;28;20053;-81
2023/01/03 10:51:29;;;;;;;153.93;78.65;;;;;;;10.65;57.78;96190.72;4931034;28;20058;-82
2023/01/03 10:53:57;;;;;;;148.95;79.13;;;;;;;10.79;57.40;96178.66;4942636;28;20042;-82
2023/01/03 10:56:25;;;;;;;141.65;75.75;;;;;;;10.70;57.23;96127.09;4931891;28;20492;-83
2023/01/03 10:59:24;;;;;;;148.13;80.45;;;;;;;11.16;56.34;96173.44;4946463;28;20462;-84
2023/01/03 11:02:07;;;;;;;148.82;77.93;;;;;;;11.25;56.00;96172.97;4908928;28;20047;-83
2023/01/03 11:04:35;;;;;;;152.30;79.55;;;;;;;10.87;55.90;96103.13;4925847;28;20119;-82
2023/01/03 11:07:12;;;;;;;155.55;79.50;;;;;;;11.21;56.24;96165.50;4947887;28;20035;-82
2023/01/03 11:09:48;;;;;;;143.55;78.53;;;;;;;11.25;56.14;96155.19;4943425;28;20035;-85
2023/01/03 11:12:25;;;;;;;142.13;78.38;;;;;;;10.87;56.11;96124.34;4943181;28;20505;-84
2023/01/03 11:14:56;;;;;;;144.45;77.82;;;;;;;10.82;56.25;96119.81;4923374;29;20036;-83
2023/01/03 11:17:25;;;;;;;147.53;79.20;;;;;;;10.74;56.32;96111.50;4931062;28;20043;-80
2023/01/03 11:19:59;;;;;;;142.27;73.93;;;;;;;10.97;56.54;96145.66;4922212;29;20335;-83
2023/01/03 11:22:45;;;;;;;135.27;71.72;;;;;;;10.90;57.55;96139.78;4935926;28;20115;-83
2023/01/03 11:25:29;;;;;;;131.60;71.32;;;;;;;10.96;57.45;96137.97;4928239;28;20581;-83
2023/01/03 11:28:07;;;;;;;127.18;68.78;;;;;;;10.99;57.36;96134.78;4936925;28;20166;-81
2023/01/03 11:30:42;;;;;;;128.95;68.15;;;;;;;10.59;57.13;96066.25;4940463;28;20043;-84
2023/01/03 11:33:35;;;;;;;115.03;63.03;;;;;;;10.87;57.48;96120.88;4944120;28;20110;-81
2023/01/03 11:36:06;;;;;;;125.45;63.97;;;;;;;10.70;56.95;96075.88;4943862;28;20039;-82
2023/01/03 11:38:41;;;;;;;;;;;;;;;10.96;57.22;96111.41;4929203;29;20541;-82
2023/01/03 11:41:25;;;;;;;104.70;56.03;;;;;;;10.24;58.04;96011.81;4952822;28;19973;-82
2023/01/03 11:44:16;;;;;;;100.60;56.40;;;;;;;10.89;57.85;96105.53;4950110;28;20047;-82
2023/01/03 11:47:17;;;;;;;106.20;54.85;;;;;;;10.89;58.02;96105.53;4938729;28;20035;-81
2023/01/03 11:50:18;;;;;;;104.57;54.13;;;;;;;10.91;58.53;96095.47;4939211;28;20521;-81
2023/01/03 11:52:46;;;;;;;109.65;57.10;;;;;;;10.99;58.08;96095.78;4943631;28;20822;-82
2023/01/03 11:55:19;;;;;;;108.40;54.58;;;;;;;10.72;57.57;96031.34;4945834;28;20037;-81
2023/01/03 11:57:56;;;;;;;114.65;55.95;;;;;;;11.01;57.31;96088.34;4945302;28;20035;-81
2023/01/03 12:00:40;;;;;;;107.35;56.45;;;;;;;10.73;57.82;96030.28;4941597;28;20048;-80
2023/01/03 12:03:21;;;;;;;102.53;56.47;;;;;;;11.17;57.22;96087.44;4929405;28;20077;-81
2023/01/03 12:05:52;;;;;;;105.70;57.17;;;;;;;10.77;57.41;96023.41;4928486;28;20115;-81
2023/01/03 12:08:33;;;;;;;111.43;57.95;;;;;;;11.23;57.58;96089.06;4924242;28;20955;-81
2023/01/03 12:11:05;;;;;;;110.28;57.45;;;;;;;11.31;57.42;96087.78;4919803;28;20051;-81
2023/01/03 12:14:01;;;;;;;118.40;60.25;;;;;;;11.09;57.61;96079.94;4939396;28;20050;-82
2023/01/03 12:16:40;;;;;;;116.03;60.80;;;;;;;11.16;57.74;96079.72;4934507;28;20041;-82
2023/01/03 12:19:31;;;;;;;115.60;59.15;;;;;;;11.14;58.08;96073.84;4943558;28;20175;-84
2023/01/03 12:22:36;;;;;;;117.35;61.88;;;;;;;11.04;58.38;96069.28;4944566;28;20686;-81
2023/01/03 12:25:25;;;;;;;114.68;60.58;;;;;;;10.89;58.51;96017.94;4935536;28;20051;-82
2023/01/03 12:28:11;;;;;;;108.68;60.05;;;;;;;11.06;57.77;96037.19;4943174;28;20047;-82
2023/01/03 12:30:45;;;;;;;117.82;60.67;;;;;;;10.82;57.93;96002.25;4938167;28;20031;-81
2023/01/03 12:33:21;;;;;;;110.65;63.63;;;;;;;10.77;58.06;95995.03;4935786;28;20485;-82
2023/01/03 12:35:56;;;;;;;131.15;68.35;;;;;;;11.22;57.38;96041.50;4939627;28;20047;-81